Airfield :
LOGIN :

Register | Disclaimer

   EN    FR    IT 

 










Legend :    VFR   Marginal VFR   IFR   Intensive IFR   Very Intensive IFR
Visi :
Ceiling :
>= 8 km
>= 3000ft
5 to 8 km
1000 to 3000 ft
1500m to 5 km
500 to 1000 ft
800 to 1500m
200 to 500 ft
< 800m
< 200 ft
Symbols :   Thunderstorms  Fog  Heavy snow  Heavy precipitations  Wind > 20 kt
SIGMETs :     Misc.  Thunderstorms  Icing  Turbulence  Mountain Waves  Volcanic Ashes







- Airport Elevation : 39 ft
- IATA code : ANR


EBAW - Anvers / Antwerpen Deurne

CURRENT METAR :
  • 200050Z AUTO 23007KT 4000 BR BKN008/// OVC010/// 17/16 Q1010

EXPIRED METARs :
  • 200020Z AUTO 23006KT 3400 BR SCT007/// BKN020/// BKN024/// 17/16 Q1010
  • 192350Z AUTO 24005KT 3400 BR FEW006/// SCT008/// 17/16 Q1009
  • 192320Z AUTO 23006KT 3400 BR FEW005/// 17/16 Q1009
  • 192250Z AUTO 24005KT 210V270 3900 BR FEW025/// 17/16 Q1009
  • 192220Z AUTO 26006KT 4200 BR FEW007/// BKN008/// 17/16 Q1009

TAF COR TAF EBAW
Valid from the 20 at 00:00 until the 20 at 09:00 UTC


192338Z 2000/2009 23006KT 8000 SCT015
TEMPO 2000/2007 2500 BR BKN006
PROB40
TEMPO 2007/2009 4000 SHRA BKN018CB
No reported NOTAMs for that airfield.



MET'MAP, your aeronautical weather chart ! - Copyright ORBIFLY December 2007 - Disclaimer

ORBIFLY MET'MAP TEAM :

Programming & Development : Alexandra Zaïnal
Concept & Development : Baudouin d'Aumeries
Co-Development & Prog : Marc-Olivier Méhu
Technical & hardware support : Manuel Goepfert

Contact : metmap@orbifly.com




SOURCES & CREDITS :

   NOAA